createdAt,value
2016-10-29T00:00:58.040Z,0
2016-10-29T00:02:08.337Z,0
2016-10-29T00:03:18.330Z,0
2016-10-29T00:04:27.695Z,0
2016-10-29T00:05:37.398Z,0
2016-10-29T00:06:47.384Z,0
2016-10-29T00:07:57.665Z,0
2016-10-29T00:09:07.957Z,0
2016-10-29T00:10:18.250Z,0
2016-10-29T00:11:28.232Z,0
2016-10-29T00:12:38.242Z,0
2016-10-29T00:13:48.557Z,0
2016-10-29T00:14:58.232Z,0
2016-10-29T00:16:07.909Z,0
2016-10-29T00:17:18.255Z,0
2016-10-29T00:18:28.546Z,0
2016-10-29T00:19:38.232Z,0
2016-10-29T00:20:48.207Z,0
2016-10-29T00:21:58.256Z,0
2016-10-29T00:23:08.252Z,0
2016-10-29T00:24:18.244Z,0
2016-10-29T00:25:27.945Z,0
2016-10-29T00:26:37.674Z,0
2016-10-29T00:27:47.669Z,0
2016-10-29T00:28:57.995Z,0
2016-10-29T00:30:07.987Z,0
2016-10-29T00:31:18.315Z,0
2016-10-29T00:32:28.322Z,0
2016-10-29T00:33:38.316Z,0
2016-10-29T00:34:48.664Z,0
2016-10-29T00:35:58.987Z,0
2016-10-29T00:37:09.269Z,0
2016-10-29T00:38:19.276Z,0
2016-10-29T00:39:28.958Z,0
2016-10-29T00:40:38.989Z,0
2016-10-29T00:41:48.975Z,0
2016-10-29T00:42:59.268Z,0
2016-10-29T00:44:09.269Z,0
2016-10-29T00:45:19.605Z,0
2016-10-29T00:46:29.907Z,0
2016-10-29T00:47:40.213Z,0
2016-10-29T00:48:50.530Z,0
2016-10-29T00:50:00.832Z,0
2016-10-29T00:51:10.515Z,0
2016-10-29T00:52:20.241Z,0
2016-10-29T00:53:30.214Z,0
2016-10-29T00:54:40.520Z,0
2016-10-29T00:55:50.830Z,0
2016-10-29T00:57:01.136Z,0
2016-10-29T00:58:11.174Z,0
2016-10-29T00:59:21.484Z,0
2016-10-29T01:00:31.487Z,0
2016-10-29T01:01:41.784Z,0
2016-10-29T01:02:51.789Z,0
2016-10-29T01:04:02.123Z,0
2016-10-29T01:05:12.149Z,0
2016-10-29T01:06:22.146Z,0
2016-10-29T01:07:32.470Z,0
2016-10-29T01:08:42.203Z,0
2016-10-29T01:09:52.182Z,0
2016-10-29T01:11:02.488Z,0
2016-10-29T01:12:12.808Z,0
2016-10-29T01:13:23.103Z,0
2016-10-29T01:14:33.012Z,0
2016-10-29T01:15:42.985Z,0
2016-10-29T01:16:53.284Z,0
2016-10-29T01:18:03.568Z,0
2016-10-29T01:19:13.884Z,0
2016-10-29T01:20:24.186Z,0
2016-10-29T01:21:34.496Z,0
2016-10-29T01:22:44.529Z,0
2016-10-29T01:23:54.830Z,0
2016-10-29T01:25:05.113Z,0
2016-10-29T01:26:15.429Z,0
2016-10-29T01:27:25.415Z,0
2016-10-29T01:28:35.408Z,0
2016-10-29T01:29:45.408Z,0
2016-10-29T01:30:55.421Z,0
2016-10-29T01:32:05.418Z,0
2016-10-29T01:33:15.418Z,0
2016-10-29T01:34:25.705Z,0
2016-10-29T01:35:35.689Z,0
2016-10-29T01:36:45.989Z,0
2016-10-29T01:37:56.300Z,0
2016-10-29T01:39:06.595Z,0
2016-10-29T01:40:16.282Z,0
2016-10-29T01:41:25.954Z,0
2016-10-29T01:42:35.943Z,0
2016-10-29T01:43:46.240Z,0
2016-10-29T01:44:56.223Z,0
2016-10-29T01:46:05.917Z,0
2016-10-29T01:47:16.212Z,0
2016-10-29T01:48:26.186Z,0
2016-10-29T01:49:36.176Z,0
2016-10-29T01:50:46.170Z,0
2016-10-29T01:51:55.855Z,0
2016-10-29T01:53:06.162Z,0
2016-10-29T01:54:15.870Z,0
2016-10-29T01:55:25.864Z,0
2016-10-29T01:56:35.887Z,0
2016-10-29T01:57:46.177Z,0
2016-10-29T01:58:56.506Z,0
2016-10-29T02:00:06.540Z,0
2016-10-29T02:01:16.829Z,0
2016-10-29T02:02:26.852Z,0
2016-10-29T02:03:37.156Z,0
2016-10-29T02:04:47.142Z,0
2016-10-29T02:05:57.123Z,0
2016-10-29T02:07:06.806Z,0
2016-10-29T02:08:17.115Z,0
2016-10-29T02:09:27.115Z,0
2016-10-29T02:10:37.129Z,0
2016-10-29T02:11:47.164Z,0
2016-10-29T02:12:57.470Z,0
2016-10-29T02:14:07.757Z,0
2016-10-29T02:15:18.059Z,0
2016-10-29T02:16:28.044Z,0
2016-10-29T02:17:38.350Z,0
2016-10-29T02:18:48.043Z,0
2016-10-29T02:19:58.048Z,0
2016-10-29T02:21:07.731Z,0
2016-10-29T02:22:18.050Z,0
2016-10-29T02:23:28.371Z,0
2016-10-29T02:24:38.667Z,0
2016-10-29T02:25:48.979Z,0
2016-10-29T02:26:59.281Z,0
2016-10-29T02:28:09.594Z,0
2016-10-29T02:29:19.627Z,0
2016-10-29T02:30:29.914Z,0
2016-10-29T02:31:39.894Z,0
2016-10-29T02:32:50.199Z,0
2016-10-29T02:34:00.509Z,0
2016-10-29T02:35:10.843Z,0
2016-10-29T02:36:20.832Z,0
2016-10-29T02:37:30.828Z,0
2016-10-29T02:38:41.134Z,0
2016-10-29T02:39:51.130Z,0
2016-10-29T02:41:01.130Z,0
2016-10-29T02:42:11.425Z,0
2016-10-29T02:43:21.754Z,0
2016-10-29T02:44:32.057Z,0
2016-10-29T02:45:42.352Z,0
2016-10-29T02:46:52.641Z,0
2016-10-29T02:48:02.951Z,0
2016-10-29T02:49:12.973Z,0
2016-10-29T02:50:22.952Z,0
2016-10-29T02:51:32.986Z,0
2016-10-29T02:52:43.303Z,0
2016-10-29T02:53:53.599Z,0
2016-10-29T02:55:03.643Z,0
2016-10-29T02:56:13.646Z,0
2016-10-29T02:57:23.641Z,0
2016-10-29T02:58:33.628Z,0
2016-10-29T02:59:43.307Z,0
2016-10-29T03:32:15.596Z,0
2016-10-29T03:33:25.876Z,0
2016-10-29T03:34:36.185Z,0
2016-10-29T03:35:46.186Z,0
2016-10-29T03:36:55.866Z,0
2016-10-29T03:38:06.169Z,0
2016-10-29T03:39:16.471Z,0
2016-10-29T03:40:26.895Z,0
2016-10-29T03:41:37.257Z,0
2016-10-29T03:42:47.543Z,0
2016-10-29T03:43:57.819Z,0
2016-10-29T03:45:07.520Z,0
2016-10-29T03:46:17.816Z,0
2016-10-29T03:47:28.102Z,0
2016-10-29T03:48:37.785Z,0
2016-10-29T03:49:47.479Z,0
2016-10-29T03:50:57.519Z,0
2016-10-29T03:52:07.537Z,0
2016-10-29T03:53:17.846Z,0
2016-10-29T03:54:28.147Z,0
2016-10-29T03:55:38.495Z,0
2016-10-29T03:56:48.482Z,0
2016-10-29T03:57:58.464Z,0
2016-10-29T03:59:08.447Z,0
2016-10-29T04:00:18.762Z,0
2016-10-29T04:01:28.756Z,0
2016-10-29T04:02:39.069Z,0
2016-10-29T04:03:49.057Z,0
2016-10-29T04:04:59.058Z,0
2016-10-29T04:06:08.729Z,0
2016-10-29T04:07:19.031Z,0
2016-10-29T04:08:29.032Z,0
2016-10-29T04:09:39.344Z,0
2016-10-29T04:10:48.789Z,0
2016-10-29T04:11:58.794Z,0
2016-10-29T04:13:08.771Z,0
2016-10-29T04:14:19.071Z,0
2016-10-29T04:15:28.752Z,0
2016-10-29T04:16:39.076Z,0
2016-10-29T04:17:49.388Z,0
2016-10-29T04:18:59.716Z,0
2016-10-29T04:20:10.027Z,0
2016-10-29T04:21:20.018Z,0
2016-10-29T04:22:30.351Z,0
2016-10-29T04:23:40.660Z,0
2016-10-29T04:24:50.969Z,0
2016-10-29T04:26:01.274Z,0
2016-10-29T04:27:11.565Z,0
2016-10-29T04:28:21.906Z,0
2016-10-29T04:29:32.199Z,0
2016-10-29T04:30:42.504Z,0
2016-10-29T04:31:52.493Z,0
2016-10-29T04:33:02.492Z,0
2016-10-29T04:34:12.789Z,0
2016-10-29T04:35:23.077Z,0
2016-10-29T04:36:33.384Z,0
2016-10-29T04:37:43.358Z,0
2016-10-29T04:38:53.651Z,0
2016-10-29T04:40:03.987Z,0
2016-10-29T04:41:13.977Z,0
2016-10-29T04:42:24.272Z,0
2016-10-29T04:43:34.581Z,0
2016-10-29T04:44:44.571Z,0
2016-10-29T04:45:54.874Z,0
2016-10-29T04:47:04.862Z,0
2016-10-29T04:48:14.862Z,0
2016-10-29T04:49:24.559Z,0
2016-10-29T04:50:34.858Z,0
2016-10-29T04:51:45.168Z,0
2016-10-29T04:52:55.189Z,0
2016-10-29T04:54:05.491Z,0
2016-10-29T04:55:15.838Z,0
2016-10-29T04:56:25.518Z,0
2016-10-29T04:57:35.825Z,0
2016-10-29T04:58:46.158Z,0
2016-10-29T04:59:56.177Z,0
2016-10-29T05:01:06.524Z,0
2016-10-29T05:02:16.522Z,0
2016-10-29T05:03:26.819Z,0
2016-10-29T05:04:37.161Z,0
2016-10-29T05:05:47.164Z,0
2016-10-29T05:06:56.832Z,0
2016-10-29T05:08:07.138Z,0
2016-10-29T05:09:17.464Z,0
2016-10-29T05:10:27.470Z,0
2016-10-29T05:11:37.501Z,0
2016-10-29T05:12:47.806Z,0
2016-10-29T05:13:58.094Z,0
2016-10-29T05:15:08.382Z,0
2016-10-29T05:16:18.383Z,0
2016-10-29T05:17:28.362Z,0
2016-10-29T05:18:38.653Z,0
2016-10-29T05:19:48.653Z,0
2016-10-29T05:20:58.355Z,0
2016-10-29T05:22:08.342Z,0
2016-10-29T05:23:18.638Z,0
2016-10-29T05:24:28.968Z,0
2016-10-29T05:25:38.957Z,0
2016-10-29T05:26:48.984Z,0
2016-10-29T05:27:59.275Z,0
2016-10-29T05:29:09.587Z,0
2016-10-29T05:30:19.892Z,0
2016-10-29T05:31:30.200Z,0
2016-10-29T05:32:40.507Z,0
2016-10-29T05:33:50.800Z,0
2016-10-29T05:35:00.784Z,0
2016-10-29T05:36:11.079Z,0
2016-10-29T05:37:21.370Z,0
2016-10-29T05:38:31.671Z,0
2016-10-29T05:39:41.970Z,0
2016-10-29T05:40:52.271Z,0
2016-10-29T05:42:02.260Z,0
2016-10-29T05:43:12.565Z,5
2016-10-29T05:44:22.870Z,5
2016-10-29T05:45:32.905Z,5
2016-10-29T05:46:42.620Z,5
2016-10-29T05:47:52.933Z,5
2016-10-29T05:49:03.238Z,5
2016-10-29T05:50:13.548Z,5
2016-10-29T05:51:23.534Z,10
2016-10-29T05:52:33.923Z,10
2016-10-29T05:53:44.229Z,10
2016-10-29T05:54:54.207Z,10
2016-10-29T05:56:04.510Z,10
2016-10-29T05:57:14.502Z,15
2016-10-29T05:58:24.505Z,15
2016-10-29T05:59:34.819Z,15
2016-10-29T06:00:45.109Z,15
2016-10-29T06:01:55.440Z,15
2016-10-29T06:03:05.753Z,15
2016-10-29T06:04:16.053Z,15
2016-10-29T06:05:26.356Z,15
2016-10-29T06:06:36.674Z,15
2016-10-29T06:07:46.653Z,15
2016-10-29T06:08:56.648Z,15
2016-10-29T06:10:06.947Z,15
2016-10-29T06:11:17.326Z,15
2016-10-29T06:12:27.301Z,15
2016-10-29T06:13:37.592Z,15
2016-10-29T06:14:47.895Z,15
2016-10-29T06:15:57.878Z,15
2016-10-29T06:17:08.237Z,15
2016-10-29T06:18:18.233Z,15
2016-10-29T06:19:28.524Z,20
2016-10-29T06:20:38.514Z,20
2016-10-29T06:21:48.504Z,20
2016-10-29T06:22:58.798Z,20
2016-10-29T06:24:09.089Z,20
2016-10-29T06:25:19.380Z,20
2016-10-29T06:26:29.672Z,20
2016-10-29T06:27:39.972Z,20
2016-10-29T06:28:50.266Z,20
2016-10-29T06:30:00.557Z,20
2016-10-29T06:31:10.835Z,25
2016-10-29T06:32:20.526Z,25
2016-10-29T06:33:31.060Z,30
2016-10-29T06:34:41.059Z,30
2016-10-29T06:35:51.351Z,30
2016-10-29T06:37:01.357Z,35
2016-10-29T06:38:11.676Z,35
2016-10-29T06:39:21.982Z,40
2016-10-29T06:40:31.985Z,40
2016-10-29T06:41:41.975Z,40
2016-10-29T06:42:52.309Z,45
2016-10-29T06:44:02.296Z,45
2016-10-29T06:45:12.309Z,40
2016-10-29T06:46:22.603Z,40
2016-10-29T06:47:31.984Z,40
2016-10-29T06:48:42.287Z,40
2016-10-29T06:49:52.253Z,40
2016-10-29T06:51:02.554Z,40
2016-10-29T06:52:12.868Z,40
2016-10-29T06:53:23.171Z,40
2016-10-29T06:54:33.480Z,40
2016-10-29T06:55:43.790Z,35
2016-10-29T06:56:53.772Z,30
2016-10-29T06:58:03.499Z,30
2016-10-29T06:59:13.482Z,30
2016-10-29T07:00:23.783Z,25
2016-10-29T07:01:33.789Z,30
2016-10-29T07:02:44.313Z,35
2016-10-29T07:03:54.626Z,45
2016-10-29T07:05:04.924Z,45
2016-10-29T07:06:14.940Z,40
2016-10-29T07:07:25.271Z,45
2016-10-29T07:08:35.608Z,45
2016-10-29T07:09:45.611Z,50
2016-10-29T07:10:55.642Z,55
2016-10-29T07:12:05.974Z,60
2016-10-29T07:13:16.276Z,60
2016-10-29T07:14:26.266Z,55
2016-10-29T07:15:36.557Z,55
2016-10-29T07:16:46.844Z,55
2016-10-29T07:17:57.148Z,55
2016-10-29T07:19:07.495Z,55
2016-10-29T07:20:17.488Z,65
2016-10-29T07:21:27.470Z,75
2016-10-29T07:22:37.448Z,80
2016-10-29T07:23:47.446Z,85
2016-10-29T07:24:57.483Z,85
2016-10-29T07:26:07.797Z,85
2016-10-29T07:27:17.834Z,85
2016-10-29T07:28:28.137Z,85
2016-10-29T07:29:38.129Z,85
2016-10-29T07:30:48.130Z,80
2016-10-29T07:31:58.139Z,80
2016-10-29T07:33:08.469Z,80
2016-10-29T07:34:18.790Z,80
2016-10-29T07:35:28.798Z,75
2016-10-29T07:36:39.114Z,80
2016-10-29T07:37:49.412Z,75
2016-10-29T07:38:59.088Z,70
2016-10-29T07:40:09.474Z,70
2016-10-29T07:41:19.697Z,70
2016-10-29T07:42:30.024Z,70
2016-10-29T07:43:40.325Z,60
2016-10-29T07:44:50.631Z,60
2016-10-29T07:46:00.946Z,65
2016-10-29T07:47:11.262Z,75
2016-10-29T07:48:21.558Z,80
2016-10-29T07:49:31.584Z,75
2016-10-29T07:50:41.584Z,75
2016-10-29T07:51:51.897Z,75
2016-10-29T07:53:01.902Z,80
2016-10-29T07:54:12.306Z,80
2016-10-29T07:55:22.641Z,85
2016-10-29T07:56:32.940Z,80
2016-10-29T07:57:42.646Z,80
2016-10-29T07:58:52.981Z,80
2016-10-29T08:00:02.967Z,80
2016-10-29T08:01:13.311Z,80
2016-10-29T08:02:23.309Z,80
2016-10-29T08:03:33.289Z,85
2016-10-29T08:04:43.704Z,85
2016-10-29T08:05:53.703Z,95
2016-10-29T08:07:04.001Z,105
2016-10-29T08:08:14.016Z,120
2016-10-29T08:09:24.326Z,120
2016-10-29T08:10:34.619Z,120
2016-10-29T08:11:44.927Z,115
2016-10-29T08:12:55.231Z,125
2016-10-29T08:14:05.526Z,135
2016-10-29T08:15:15.830Z,140
2016-10-29T08:16:26.153Z,150
2016-10-29T08:17:36.189Z,150
2016-10-29T08:18:46.495Z,150
2016-10-29T08:19:56.822Z,160
2016-10-29T08:21:06.818Z,165
2016-10-29T08:22:17.128Z,160
2016-10-29T08:23:27.474Z,150
2016-10-29T08:24:37.834Z,155
2016-10-29T08:25:48.145Z,150
2016-10-29T08:26:57.837Z,150
2016-10-29T08:28:07.832Z,160
2016-10-29T08:29:18.142Z,160
2016-10-29T08:30:28.459Z,155
2016-10-29T08:31:38.786Z,150
2016-10-29T08:32:49.113Z,155
2016-10-29T08:33:58.788Z,155
2016-10-29T08:35:08.510Z,155
2016-10-29T08:36:18.940Z,155
2016-10-29T08:37:28.944Z,150
2016-10-29T08:38:39.261Z,150
2016-10-29T08:39:49.618Z,155
2016-10-29T08:41:00.152Z,165
2016-10-29T08:42:10.139Z,160
2016-10-29T08:43:20.447Z,155
2016-10-29T08:44:30.779Z,160
2016-10-29T08:45:40.790Z,160
2016-10-29T08:46:51.150Z,155
2016-10-29T08:48:01.451Z,140
2016-10-29T08:49:11.455Z,150
2016-10-29T08:50:21.759Z,155
2016-10-29T08:51:31.772Z,160
2016-10-29T08:52:42.087Z,160
2016-10-29T08:53:52.614Z,155
2016-10-29T08:55:02.921Z,150
2016-10-29T08:56:12.960Z,145
2016-10-29T08:57:23.278Z,145
2016-10-29T08:58:33.599Z,145
2016-10-29T08:59:43.950Z,140
2016-10-29T09:00:53.945Z,145
2016-10-29T09:02:04.307Z,140
2016-10-29T09:03:14.614Z,150
2016-10-29T09:04:24.910Z,155
2016-10-29T09:05:34.928Z,160
2016-10-29T09:06:45.211Z,165
2016-10-29T09:07:55.204Z,160
2016-10-29T09:09:05.545Z,160
2016-10-29T09:10:15.843Z,165
2016-10-29T09:11:26.160Z,155
2016-10-29T09:12:36.190Z,155
2016-10-29T09:13:46.720Z,155
2016-10-29T09:14:56.405Z,155
2016-10-29T09:16:06.427Z,160
2016-10-29T09:17:16.443Z,165
2016-10-29T09:18:26.752Z,165
2016-10-29T09:19:37.073Z,160
2016-10-29T09:20:47.070Z,155
2016-10-29T09:21:57.110Z,165
2016-10-29T09:23:07.444Z,165
2016-10-29T09:24:17.776Z,165
2016-10-29T09:25:28.079Z,165
2016-10-29T09:26:38.111Z,160
2016-10-29T09:27:47.799Z,160
2016-10-29T09:28:58.104Z,160
2016-10-29T09:30:07.792Z,160
2016-10-29T09:31:17.818Z,165
2016-10-29T09:32:28.134Z,165
2016-10-29T09:33:38.148Z,170
2016-10-29T09:34:48.468Z,175
2016-10-29T09:35:58.482Z,170
2016-10-29T09:37:08.475Z,170
2016-10-29T09:38:18.801Z,170
2016-10-29T09:39:29.129Z,170
2016-10-29T09:40:39.493Z,165
2016-10-29T09:41:49.506Z,165
2016-10-29T09:42:59.812Z,165
2016-10-29T09:44:09.809Z,165
2016-10-29T09:45:20.117Z,165
2016-10-29T09:46:30.432Z,170
2016-10-29T09:47:40.746Z,175
2016-10-29T09:48:50.749Z,175
2016-10-29T09:50:00.749Z,170
2016-10-29T09:51:10.740Z,175
2016-10-29T09:52:21.095Z,180
2016-10-29T09:53:31.088Z,175
2016-10-29T09:54:41.397Z,170
2016-10-29T09:55:51.709Z,175
2016-10-29T09:57:01.716Z,180
2016-10-29T09:58:12.013Z,185
2016-10-29T09:59:21.723Z,185
2016-10-29T10:00:32.049Z,190
2016-10-29T10:01:42.383Z,180
2016-10-29T10:02:52.689Z,170
2016-10-29T10:04:02.984Z,170
2016-10-29T10:05:13.300Z,160
2016-10-29T10:06:23.607Z,150
2016-10-29T10:07:33.918Z,140
2016-10-29T10:08:43.933Z,140
2016-10-29T10:09:54.246Z,130
2016-10-29T10:11:03.940Z,130
2016-10-29T10:12:14.236Z,125
2016-10-29T10:13:24.215Z,125
2016-10-29T10:14:34.517Z,120
2016-10-29T10:15:44.513Z,130
2016-10-29T10:16:54.813Z,130
2016-10-29T10:18:04.515Z,130
2016-10-29T10:19:14.518Z,115
2016-10-29T10:20:24.816Z,100
2016-10-29T10:21:34.814Z,90
2016-10-29T10:22:45.176Z,100
2016-10-29T10:23:55.492Z,125
2016-10-29T10:25:05.180Z,130
2016-10-29T10:26:15.196Z,130
2016-10-29T10:27:25.506Z,130
2016-10-29T10:28:35.826Z,130
2016-10-29T10:29:45.845Z,125
2016-10-29T10:30:55.223Z,120
2016-10-29T10:32:05.555Z,120
2016-10-29T10:33:15.857Z,125
2016-10-29T10:34:25.857Z,130
2016-10-29T10:35:36.179Z,145
2016-10-29T10:36:46.186Z,155
2016-10-29T10:37:56.170Z,165
2016-10-29T10:39:06.165Z,175
2016-10-29T10:40:16.478Z,175
2016-10-29T10:41:26.782Z,175
2016-10-29T10:42:36.776Z,175
2016-10-29T10:43:47.108Z,165
2016-10-29T10:44:57.478Z,155
2016-10-29T10:46:07.199Z,170
2016-10-29T10:47:17.563Z,160
2016-10-29T10:48:27.644Z,140
2016-10-29T10:49:37.690Z,105
2016-10-29T10:50:47.718Z,75
2016-10-29T10:51:57.727Z,45
2016-10-29T10:53:07.715Z,30
2016-10-29T10:54:17.718Z,25
2016-10-29T10:55:28.052Z,20
2016-10-29T10:56:38.111Z,20
2016-10-29T10:57:48.473Z,25
2016-10-29T10:58:58.788Z,25
2016-10-29T11:00:09.124Z,30
2016-10-29T11:01:19.494Z,30
2016-10-29T11:02:29.624Z,35
2016-10-29T11:03:39.929Z,40
2016-10-29T11:04:50.278Z,45
2016-10-29T11:06:00.617Z,50
2016-10-29T11:07:10.937Z,50
2016-10-29T11:08:20.670Z,55
2016-10-29T11:09:30.354Z,60
2016-10-29T11:10:40.455Z,65
2016-10-29T11:11:50.166Z,65
2016-10-29T11:13:00.139Z,70
2016-10-29T11:14:10.502Z,80
2016-10-29T11:15:20.509Z,90
2016-10-29T11:16:30.255Z,95
2016-10-29T11:17:40.575Z,95
2016-10-29T11:18:50.568Z,95
2016-10-29T11:20:00.625Z,95
2016-10-29T11:21:10.354Z,105
2016-10-29T11:22:20.693Z,105
2016-10-29T11:23:30.676Z,105
2016-10-29T11:24:41.019Z,115
2016-10-29T11:25:51.084Z,125
2016-10-29T11:27:00.779Z,130
2016-10-29T11:28:10.449Z,135
2016-10-29T11:29:20.836Z,145
2016-10-29T11:30:30.837Z,160
2016-10-29T11:31:41.131Z,175
2016-10-29T11:32:51.434Z,190
2016-10-29T11:34:01.743Z,195
2016-10-29T11:35:12.086Z,195
2016-10-29T11:36:22.405Z,205
2016-10-29T11:37:32.417Z,210
2016-10-29T11:38:42.805Z,215
2016-10-29T11:39:52.868Z,210
2016-10-29T11:41:03.177Z,200
2016-10-29T11:42:13.211Z,195
2016-10-29T11:43:22.914Z,195
2016-10-29T11:44:33.222Z,185
2016-10-29T11:45:43.528Z,175
2016-10-29T11:46:53.830Z,175
2016-10-29T11:48:03.822Z,170
2016-10-29T11:49:14.135Z,165
2016-10-29T11:50:24.124Z,160
2016-10-29T11:51:34.427Z,155
2016-10-29T11:52:44.742Z,150
2016-10-29T11:53:55.041Z,145
2016-10-29T11:55:05.065Z,145
2016-10-29T11:56:15.379Z,140
2016-10-29T11:57:25.713Z,135
2016-10-29T11:58:36.012Z,130
2016-10-29T11:59:45.721Z,130
2016-10-29T12:00:56.056Z,125
2016-10-29T12:02:06.375Z,120
2016-10-29T12:03:16.043Z,105
2016-10-29T12:04:26.096Z,105
2016-10-29T12:05:36.418Z,130
2016-10-29T12:06:46.403Z,140
2016-10-29T12:07:56.715Z,135
2016-10-29T12:09:07.027Z,130
2016-10-29T12:10:17.313Z,130
2016-10-29T12:11:26.966Z,140
2016-10-29T12:12:37.274Z,150
2016-10-29T12:13:47.270Z,155
2016-10-29T12:14:57.570Z,155
2016-10-29T12:16:07.893Z,155
2016-10-29T12:17:17.571Z,150
2016-10-29T12:18:27.865Z,135
2016-10-29T12:19:38.168Z,125
2016-10-29T12:20:48.454Z,125
2016-10-29T12:21:58.806Z,200
2016-10-29T12:23:09.107Z,210
2016-10-29T12:24:19.077Z,215
2016-10-29T12:25:29.377Z,210
2016-10-29T12:26:39.363Z,220
2016-10-29T12:27:49.049Z,175
2016-10-29T12:28:59.332Z,160
2016-10-29T12:30:09.325Z,160
2016-10-29T12:31:19.619Z,165
2016-10-29T12:32:29.938Z,165
2016-10-29T12:33:40.228Z,165
2016-10-29T12:34:50.209Z,190
2016-10-29T12:36:00.190Z,265
2016-10-29T12:37:10.495Z,265
2016-10-29T12:38:20.810Z,250
2016-10-29T12:39:31.107Z,230
2016-10-29T12:40:41.429Z,195
2016-10-29T12:41:51.435Z,165
2016-10-29T12:43:01.802Z,165
2016-10-29T12:44:11.494Z,160
2016-10-29T12:45:21.489Z,170
2016-10-29T12:46:31.478Z,170
2016-10-29T12:47:41.793Z,155
2016-10-29T12:48:51.811Z,180
2016-10-29T12:50:01.189Z,140
2016-10-29T12:51:11.474Z,125
2016-10-29T12:52:20.836Z,125
2016-10-29T12:53:30.826Z,115
2016-10-29T12:54:41.163Z,125
2016-10-29T12:55:51.160Z,110
2016-10-29T12:57:01.164Z,110
2016-10-29T12:58:11.503Z,110
2016-10-29T12:59:21.486Z,115
2016-10-29T13:00:31.175Z,170
2016-10-29T13:01:41.208Z,135
2016-10-29T13:02:51.201Z,115
2016-10-29T13:04:00.613Z,105
2016-10-29T13:05:10.573Z,105
2016-10-29T13:06:20.968Z,100
2016-10-29T13:07:31.263Z,105
2016-10-29T13:08:41.568Z,105
2016-10-29T13:09:51.537Z,105
2016-10-29T13:11:01.222Z,115
2016-10-29T13:12:11.559Z,110
2016-10-29T13:13:21.231Z,110
2016-10-29T13:14:30.925Z,110
2016-10-29T13:15:41.215Z,135
2016-10-29T13:16:51.516Z,125
2016-10-29T13:18:01.852Z,125
2016-10-29T13:19:11.534Z,135
2016-10-29T13:20:21.821Z,140
2016-10-29T13:21:31.809Z,135
2016-10-29T13:22:41.809Z,130
2016-10-29T13:23:51.853Z,195
2016-10-29T13:25:01.554Z,155
2016-10-29T13:26:11.561Z,145
2016-10-29T13:27:21.846Z,195
2016-10-29T13:28:31.537Z,155
2016-10-29T13:29:41.535Z,180
2016-10-29T13:30:51.520Z,165
2016-10-29T13:32:01.819Z,140
2016-10-29T13:33:12.125Z,145
2016-10-29T13:34:21.812Z,180
2016-10-29T13:35:32.133Z,150
2016-10-29T13:36:42.438Z,110
2016-10-29T13:37:52.428Z,100
2016-10-29T13:39:02.713Z,100
2016-10-29T13:40:13.004Z,95
2016-10-29T13:41:23.025Z,100
2016-10-29T13:42:33.300Z,105
2016-10-29T13:43:43.594Z,105
2016-10-29T13:44:53.585Z,110
2016-10-29T13:46:03.934Z,115
2016-10-29T13:47:13.922Z,115
2016-10-29T13:48:24.227Z,105
2016-10-29T13:49:34.215Z,105
2016-10-29T13:50:44.213Z,100
2016-10-29T13:51:54.493Z,105
2016-10-29T13:53:04.165Z,115
2016-10-29T13:54:14.453Z,110
2016-10-29T13:55:24.776Z,110
2016-10-29T13:56:35.063Z,120
2016-10-29T13:57:45.063Z,125
2016-10-29T13:58:54.724Z,125
2016-10-29T14:00:04.710Z,120
2016-10-29T14:01:14.755Z,125
2016-10-29T14:02:24.764Z,140
2016-10-29T14:03:35.078Z,130
2016-10-29T14:04:45.385Z,115
2016-10-29T14:05:55.694Z,120
2016-10-29T14:07:06.043Z,120
2016-10-29T14:08:16.345Z,105
2016-10-29T14:09:26.348Z,100
2016-10-29T14:10:36.044Z,95
2016-10-29T14:11:46.349Z,90
2016-10-29T14:12:56.357Z,90
2016-10-29T14:14:06.655Z,85
2016-10-29T14:15:16.970Z,80
2016-10-29T14:16:26.949Z,85
2016-10-29T14:17:37.235Z,85
2016-10-29T14:18:47.526Z,75
2016-10-29T14:19:57.214Z,70
2016-10-29T14:21:06.890Z,70
2016-10-29T14:22:17.187Z,65
2016-10-29T14:23:27.489Z,60
2016-10-29T14:24:37.464Z,55
2016-10-29T14:25:47.497Z,55
2016-10-29T14:26:57.802Z,55
2016-10-29T14:28:07.793Z,55
2016-10-29T14:29:18.175Z,55
2016-10-29T14:30:27.863Z,60
2016-10-29T14:31:38.153Z,65
2016-10-29T14:32:48.131Z,60
2016-10-29T14:33:58.114Z,60
2016-10-29T14:35:08.140Z,60
2016-10-29T14:36:18.441Z,60
2016-10-29T14:37:28.743Z,55
2016-10-29T14:38:38.752Z,55
2016-10-29T14:39:49.055Z,60
2016-10-29T14:40:59.367Z,60
2016-10-29T14:42:09.658Z,60
2016-10-29T14:43:19.344Z,60
2016-10-29T14:44:29.008Z,60
2016-10-29T14:45:39.334Z,55
2016-10-29T14:46:49.663Z,45
2016-10-29T14:48:00.017Z,40
2016-10-29T14:49:10.347Z,35
2016-10-29T14:50:20.421Z,35
2016-10-29T14:51:30.712Z,35
2016-10-29T14:52:41.007Z,35
2016-10-29T14:53:50.981Z,35
2016-10-29T14:55:00.652Z,35
2016-10-29T14:56:10.956Z,35
2016-10-29T14:57:20.946Z,35
2016-10-29T14:58:30.673Z,35
2016-10-29T14:59:40.989Z,35
2016-10-29T15:00:50.981Z,30
2016-10-29T15:02:00.958Z,30
2016-10-29T15:03:10.960Z,30
2016-10-29T15:04:20.646Z,30
2016-10-29T15:05:31.001Z,30
2016-10-29T15:06:40.987Z,25
2016-10-29T15:07:51.315Z,25
2016-10-29T15:09:01.633Z,25
2016-10-29T15:10:11.937Z,25
2016-10-29T15:11:21.956Z,20
2016-10-29T15:12:32.502Z,20
2016-10-29T15:13:41.908Z,20
2016-10-29T15:14:52.212Z,20
2016-10-29T15:16:01.904Z,20
2016-10-29T15:17:11.916Z,15
2016-10-29T15:18:22.197Z,15
2016-10-29T15:19:32.499Z,15
2016-10-29T15:20:42.209Z,15
2016-10-29T15:21:52.205Z,15
2016-10-29T15:23:02.702Z,15
2016-10-29T15:24:12.695Z,10
2016-10-29T15:25:22.381Z,10
2016-10-29T15:26:32.672Z,10
2016-10-29T15:27:42.972Z,10
2016-10-29T15:28:53.262Z,5
2016-10-29T15:30:03.557Z,5
2016-10-29T15:31:13.949Z,5
2016-10-29T15:32:24.250Z,5
2016-10-29T15:33:34.242Z,0
2016-10-29T15:34:43.926Z,0
2016-10-29T15:35:53.645Z,0
2016-10-29T15:37:03.618Z,0
2016-10-29T15:38:13.904Z,0
2016-10-29T15:39:23.889Z,0
2016-10-29T15:40:33.549Z,0
2016-10-29T15:41:43.549Z,0
2016-10-29T15:42:53.265Z,0
2016-10-29T15:44:03.256Z,0
2016-10-29T15:45:13.238Z,0
2016-10-29T15:46:23.233Z,0
2016-10-29T15:47:33.541Z,0
2016-10-29T15:48:43.833Z,0
2016-10-29T15:49:53.834Z,0
2016-10-29T15:51:03.837Z,0
2016-10-29T15:52:14.148Z,0
2016-10-29T15:53:24.134Z,0
2016-10-29T15:54:34.120Z,0
2016-10-29T15:55:44.423Z,0
2016-10-29T15:56:54.390Z,0
2016-10-29T15:58:04.386Z,0
2016-10-29T15:59:14.680Z,0
2016-10-29T16:00:24.348Z,0
2016-10-29T16:01:33.401Z,0
2016-10-29T16:02:43.082Z,0
2016-10-29T16:03:53.376Z,0
2016-10-29T16:05:03.656Z,0
2016-10-29T16:06:13.953Z,0
2016-10-29T16:07:24.260Z,0
2016-10-29T16:08:34.541Z,0
2016-10-29T16:09:44.537Z,0
2016-10-29T16:10:54.524Z,0
2016-10-29T16:12:03.926Z,0
2016-10-29T16:13:13.623Z,0
2016-10-29T16:14:23.300Z,0
2016-10-29T16:15:33.288Z,0
2016-10-29T16:16:43.030Z,0
2016-10-29T16:17:53.348Z,0
2016-10-29T16:19:03.656Z,0
2016-10-29T16:20:13.663Z,0
2016-10-29T16:21:23.649Z,0
2016-10-29T16:22:33.648Z,0
2016-10-29T16:23:43.646Z,0
2016-10-29T16:24:53.932Z,0
2016-10-29T16:26:03.951Z,0
2016-10-29T16:27:13.944Z,0
2016-10-29T16:28:23.624Z,0
2016-10-29T16:29:32.989Z,0
2016-10-29T16:30:43.295Z,0
2016-10-29T16:31:53.591Z,0
2016-10-29T16:33:02.956Z,0
2016-10-29T16:34:13.247Z,0
2016-10-29T16:35:23.161Z,0
2016-10-29T16:36:32.892Z,0
2016-10-29T16:37:42.879Z,0
2016-10-29T16:38:53.176Z,0
2016-10-29T16:40:03.466Z,0
2016-10-29T16:41:13.768Z,0
2016-10-29T16:42:24.061Z,0
2016-10-29T16:43:33.734Z,0
2016-10-29T16:44:44.069Z,0
2016-10-29T16:45:54.048Z,0
2016-10-29T16:47:04.330Z,0
2016-10-29T16:48:14.634Z,0
2016-10-29T16:49:24.611Z,0
2016-10-29T16:50:34.313Z,0
2016-10-29T16:51:44.609Z,0
2016-10-29T16:52:54.591Z,0
2016-10-29T16:54:04.573Z,0
2016-10-29T16:55:14.571Z,0
2016-10-29T16:56:24.881Z,0
2016-10-29T16:57:34.869Z,0
2016-10-29T16:58:44.539Z,0
2016-10-29T16:59:54.216Z,0
2016-10-29T17:01:04.573Z,0
2016-10-29T17:02:14.869Z,0
2016-10-29T17:03:25.179Z,0
2016-10-29T17:04:35.475Z,0
2016-10-29T17:05:45.510Z,0
2016-10-29T17:06:55.809Z,0
2016-10-29T17:08:05.198Z,0
2016-10-29T17:09:15.523Z,0
2016-10-29T17:10:25.511Z,0
2016-10-29T17:11:35.600Z,0
2016-10-29T17:12:45.583Z,0
2016-10-29T17:13:55.292Z,0
2016-10-29T17:15:05.597Z,0